createdAt,value
2019-04-21T00:00:25.971Z,10.30
2019-04-21T00:03:01.864Z,10.30
2019-04-21T00:05:54.475Z,10.27
2019-04-21T00:08:33.419Z,10.23
2019-04-21T00:10:57.849Z,10.22
2019-04-21T00:13:20.498Z,10.24
2019-04-21T00:15:46.808Z,10.19
2019-04-21T00:18:55.812Z,10.15
2019-04-21T00:21:31.543Z,10.05
2019-04-21T00:24:23.833Z,9.98
2019-04-21T00:27:03.908Z,9.96
2019-04-21T00:29:38.574Z,9.86
2019-04-21T00:32:03.436Z,9.83
2019-04-21T00:34:21.614Z,9.87
2019-04-21T00:37:03.159Z,9.86
2019-04-21T00:42:14.358Z,9.68
2019-04-21T00:44:39.726Z,9.66
2019-04-21T00:47:27.854Z,9.61
2019-04-21T00:49:56.592Z,9.55
2019-04-21T00:52:56.617Z,9.45
2019-04-21T00:55:48.635Z,9.39
2019-04-21T00:58:28.613Z,9.29
2019-04-21T01:00:58.908Z,9.05
2019-04-21T01:03:46.297Z,9.07
2019-04-21T01:06:14.322Z,9.06
2019-04-21T01:08:31.593Z,8.96
2019-04-21T01:10:57.036Z,8.92
2019-04-21T01:13:41.478Z,8.83
2019-04-21T01:16:07.233Z,8.96
2019-04-21T01:18:37.997Z,8.89
2019-04-21T01:20:52.273Z,8.85
2019-04-21T01:23:23.404Z,8.88
2019-04-21T01:26:06.841Z,8.80
2019-04-21T01:28:41.093Z,8.89
2019-04-21T01:31:17.509Z,8.87
2019-04-21T01:33:50.592Z,8.75
2019-04-21T01:36:17.759Z,8.67
2019-04-21T01:39:02.124Z,8.62
2019-04-21T01:41:34.398Z,8.45
2019-04-21T01:43:55.578Z,8.43
2019-04-21T01:46:31.006Z,8.46
2019-04-21T01:48:59.368Z,8.42
2019-04-21T01:51:32.701Z,8.35
2019-04-21T01:54:31.754Z,8.28
2019-04-21T01:57:08.534Z,8.36
2019-04-21T01:59:35.261Z,8.32
2019-04-21T02:02:18.846Z,8.33
2019-04-21T02:04:50.048Z,8.27
2019-04-21T02:07:20.581Z,8.24
2019-04-21T02:09:51.309Z,8.12
2019-04-21T02:12:30.016Z,8.13
2019-04-21T02:15:17.072Z,8.15
2019-04-21T02:17:31.059Z,8.11
2019-04-21T02:19:55.136Z,8.06
2019-04-21T02:22:46.749Z,8.16
2019-04-21T02:25:13.969Z,8.06
2019-04-21T02:27:43.787Z,7.98
2019-04-21T02:30:22.374Z,7.99
2019-04-21T02:38:01.304Z,7.82
2019-04-21T02:40:38.986Z,7.74
2019-04-21T02:43:07.357Z,7.66
2019-04-21T02:45:37.804Z,7.68
2019-04-21T02:48:10.731Z,7.61
2019-04-21T02:53:20.337Z,7.79
2019-04-21T02:55:58.706Z,7.65
2019-04-21T02:58:31.593Z,7.58
2019-04-21T03:04:30.243Z,7.52
2019-04-21T03:07:09.634Z,7.46
2019-04-21T03:09:37.044Z,7.39
2019-04-21T03:12:14.926Z,7.24
2019-04-21T03:17:22.363Z,7.26
2019-04-21T03:19:55.490Z,7.15
2019-04-21T03:22:22.617Z,7.14
2019-04-21T03:27:40.652Z,7.17
2019-04-21T03:29:59.304Z,7.29
2019-04-21T03:33:16.360Z,7.26
2019-04-21T03:40:07.618Z,7.08
2019-04-21T03:42:42.999Z,6.93
2019-04-21T03:45:16.846Z,7.01
2019-04-21T03:50:12.821Z,7.31
2019-04-21T04:06:33.905Z,7.04
2019-04-21T04:09:19.483Z,7.07
2019-04-21T04:11:53.041Z,6.94
2019-04-21T04:16:59.036Z,6.91
2019-04-21T04:19:30.058Z,6.98
2019-04-21T04:24:29.921Z,6.88
2019-04-21T04:29:31.322Z,6.53
2019-04-21T04:32:24.912Z,6.45
2019-04-21T04:34:47.694Z,6.45
2019-04-21T04:37:23.152Z,6.45
2019-04-21T04:42:58.433Z,6.86
2019-04-21T04:48:11.839Z,7.01
2019-04-21T04:50:41.663Z,7.01
2019-04-21T04:53:15.683Z,7.01
2019-04-21T04:55:38.883Z,7.05
2019-04-21T04:58:29.625Z,7.14
2019-04-21T05:01:08.050Z,7.10
2019-04-21T05:03:27.186Z,7.08
2019-04-21T05:06:34.921Z,7.17
2019-04-21T05:09:06.270Z,7.22
2019-04-21T05:11:39.567Z,7.22
2019-04-21T05:14:07.605Z,7.30
2019-04-21T05:16:46.776Z,7.40
2019-04-21T05:23:55.862Z,7.43
2019-04-21T05:26:25.804Z,7.54
2019-04-21T05:28:55.477Z,7.61
2019-04-21T05:31:56.537Z,7.68
2019-04-21T05:34:30.532Z,7.75
2019-04-21T05:37:07.516Z,7.83
2019-04-21T05:39:55.842Z,7.98
2019-04-21T05:42:30.484Z,8.03
2019-04-21T05:45:10.592Z,8.12
2019-04-21T05:48:13.449Z,8.25
2019-04-21T05:50:35.027Z,8.33
2019-04-21T05:53:00.215Z,8.43
2019-04-21T05:55:46.376Z,8.51
2019-04-21T05:58:07.048Z,8.62
2019-04-21T06:01:15.412Z,8.80
2019-04-21T06:03:35.229Z,8.88
2019-04-21T06:08:34.279Z,9.02
2019-04-21T06:11:09.707Z,9.15
2019-04-21T06:13:42.786Z,9.22
2019-04-21T06:16:07.107Z,9.36
2019-04-21T06:18:50.586Z,9.40
2019-04-21T06:21:20.464Z,9.46
2019-04-21T06:23:47.795Z,9.54
2019-04-21T06:26:44.762Z,9.68
2019-04-21T06:29:07.332Z,9.78
2019-04-21T06:31:42.189Z,9.87
2019-04-21T06:33:58.814Z,9.98
2019-04-21T06:37:01.689Z,10.18
2019-04-21T06:39:31.744Z,10.28
2019-04-21T06:41:58.593Z,10.47
2019-04-21T06:44:33.702Z,10.61
2019-04-21T06:47:06.056Z,10.80
2019-04-21T06:49:30.228Z,10.98
2019-04-21T06:52:22.184Z,11.14
2019-04-21T06:54:42.242Z,11.31
2019-04-21T06:57:15.159Z,11.38
2019-04-21T06:59:40.562Z,11.55
2019-04-21T07:02:36.237Z,11.65
2019-04-21T07:04:50.124Z,11.86
2019-04-21T07:07:26.377Z,11.99
2019-04-21T07:09:57.154Z,12.17
2019-04-21T07:12:23.150Z,12.30
2019-04-21T07:15:01.967Z,12.46
2019-04-21T07:20:17.184Z,12.75
2019-04-21T07:22:37.541Z,12.86
2019-04-21T07:25:10.806Z,12.93
2019-04-21T07:27:43.515Z,13.03
2019-04-21T07:30:17.696Z,13.14
2019-04-21T07:32:50.804Z,13.27
2019-04-21T07:35:17.501Z,13.42
2019-04-21T07:37:51.020Z,13.59
2019-04-21T07:40:15.179Z,13.71
2019-04-21T07:42:49.758Z,13.86
2019-04-21T07:45:19.494Z,14.00
2019-04-21T07:48:13.763Z,14.22
2019-04-21T07:50:52.088Z,14.39
2019-04-21T07:53:36.796Z,14.63
2019-04-21T07:55:41.131Z,14.86
2019-04-21T07:58:36.404Z,15.11
2019-04-21T08:01:04.397Z,15.36
2019-04-21T08:03:43.847Z,15.55
2019-04-21T08:06:19.332Z,15.62
2019-04-21T08:08:41.082Z,15.72
2019-04-21T08:11:10.922Z,15.90
2019-04-21T08:16:17.430Z,16.23
2019-04-21T08:18:53.577Z,16.40
2019-04-21T08:21:26.534Z,16.62
2019-04-21T08:23:54.222Z,16.78
2019-04-21T08:26:31.172Z,16.96
2019-04-21T08:29:04.350Z,17.11
2019-04-21T08:31:38.964Z,17.35
2019-04-21T08:34:08.234Z,17.43
2019-04-21T08:36:33.993Z,17.50
2019-04-21T08:39:06.496Z,17.52
2019-04-21T08:41:40.855Z,17.65
2019-04-21T08:44:10.642Z,17.88
2019-04-21T08:46:48.757Z,18.04
2019-04-21T08:49:20.370Z,18.50
2019-04-21T08:51:57.312Z,18.57
2019-04-21T08:54:29.130Z,18.57
2019-04-21T08:57:24.239Z,18.73
2019-04-21T09:00:16.377Z,18.94
2019-04-21T09:02:47.573Z,19.12
2019-04-21T09:05:17.564Z,19.20
2019-04-21T09:07:53.674Z,19.39
2019-04-21T09:10:21.957Z,19.47
2019-04-21T09:12:52.252Z,19.60
2019-04-21T09:15:26.223Z,19.62
2019-04-21T09:17:48.661Z,19.84
2019-04-21T09:20:33.812Z,19.93
2019-04-21T09:23:00.796Z,20.03
2019-04-21T09:25:40.579Z,20.27
2019-04-21T09:28:04.103Z,20.38
2019-04-21T09:30:19.968Z,20.51
2019-04-21T09:32:54.498Z,20.62
2019-04-21T09:35:24.104Z,20.73
2019-04-21T09:38:02.137Z,20.84
2019-04-21T09:40:33.629Z,20.96
2019-04-21T09:43:04.745Z,21.16
2019-04-21T09:45:32.943Z,21.27
2019-04-21T09:48:10.144Z,21.26
2019-04-21T09:50:37.780Z,21.35
2019-04-21T09:53:16.956Z,21.45
2019-04-21T09:55:48.764Z,21.48
2019-04-21T09:58:21.804Z,21.32
2019-04-21T10:00:57.290Z,21.41
2019-04-21T10:03:19.428Z,21.49
2019-04-21T10:05:49.822Z,21.60
2019-04-21T10:08:20.662Z,21.69
2019-04-21T10:10:51.188Z,21.77
2019-04-21T10:13:21.617Z,21.79
2019-04-21T10:16:11.038Z,21.77
2019-04-21T10:18:41.849Z,21.66
2019-04-21T10:21:13.185Z,21.58
2019-04-21T10:23:43.855Z,21.62
2019-04-21T10:26:14.622Z,21.61
2019-04-21T10:28:45.141Z,21.87
2019-04-21T10:31:16.691Z,21.90
2019-04-21T10:33:48.407Z,21.93
2019-04-21T10:36:19.115Z,22.08
2019-04-21T10:38:53.170Z,22.11
2019-04-21T10:41:23.370Z,22.23
2019-04-21T10:43:55.506Z,22.35
2019-04-21T10:46:26.700Z,22.58
2019-04-21T10:48:58.837Z,22.79
2019-04-21T10:51:30.817Z,22.76
2019-04-21T10:54:02.143Z,22.59
2019-04-21T10:56:38.081Z,22.41
2019-04-21T10:59:04.975Z,22.46
2019-04-21T11:01:36.808Z,22.45
2019-04-21T11:04:25.430Z,22.37
2019-04-21T11:06:52.801Z,22.60
2019-04-21T11:09:24.152Z,22.36
2019-04-21T11:11:55.756Z,22.48
2019-04-21T11:14:27.217Z,22.55
2019-04-21T11:16:58.588Z,22.51
2019-04-21T11:19:30.706Z,22.60
2019-04-21T11:22:02.867Z,22.75
2019-04-21T11:24:35.086Z,22.86
2019-04-21T11:27:06.746Z,22.74
2019-04-21T11:29:39.232Z,22.74
2019-04-21T11:32:09.732Z,23.03
2019-04-21T11:34:41.116Z,23.07
2019-04-21T11:37:12.517Z,23.18
2019-04-21T11:39:52.013Z,23.20
2019-04-21T11:42:27.922Z,23.15
2019-04-21T11:44:58.667Z,23.21
2019-04-21T11:47:34.300Z,23.21
2019-04-21T11:50:07.291Z,23.09
2019-04-21T11:52:38.893Z,23.09
2019-04-21T11:55:10.997Z,23.35
2019-04-21T11:57:46.266Z,23.57
2019-04-21T12:00:14.090Z,23.59
2019-04-21T12:02:45.706Z,23.74
2019-04-21T12:05:17.329Z,23.70
2019-04-21T12:07:47.786Z,23.87
2019-04-21T12:10:19.534Z,23.98
2019-04-21T12:12:50.975Z,23.92
2019-04-21T12:15:22.936Z,23.76
2019-04-21T12:17:54.293Z,23.77
2019-04-21T12:20:26.424Z,23.73
2019-04-21T12:22:57.023Z,23.73
2019-04-21T12:25:31.267Z,23.90
2019-04-21T12:28:01.844Z,23.95
2019-04-21T12:30:33.630Z,23.77
2019-04-21T12:33:14.054Z,23.94
2019-04-21T12:35:45.928Z,23.96
2019-04-21T12:38:28.386Z,24.06
2019-04-21T12:40:50.659Z,24.24
2019-04-21T12:43:21.225Z,24.24
2019-04-21T12:45:51.888Z,24.49
2019-04-21T12:48:22.517Z,24.29
2019-04-21T12:50:54.204Z,24.02
2019-04-21T12:53:25.677Z,23.89
2019-04-21T12:55:56.173Z,23.92
2019-04-21T12:58:26.606Z,23.84
2019-04-21T13:00:57.056Z,23.92
2019-04-21T13:03:28.665Z,23.96
2019-04-21T13:06:01.389Z,23.96
2019-04-21T13:08:41.547Z,23.89
2019-04-21T13:11:04.712Z,23.90
2019-04-21T13:13:35.718Z,24.13
2019-04-21T13:16:07.344Z,23.99
2019-04-21T13:18:37.850Z,24.29
2019-04-21T13:21:08.289Z,24.16
2019-04-21T13:23:39.127Z,23.66
2019-04-21T13:26:11.291Z,24.07
2019-04-21T13:28:42.594Z,24.32
2019-04-21T13:31:14.060Z,24.48
2019-04-21T13:33:46.063Z,24.38
2019-04-21T13:36:18.125Z,24.53
2019-04-21T13:39:38.090Z,24.40
2019-04-21T13:41:58.357Z,24.40
2019-04-21T13:44:21.262Z,24.58
2019-04-21T13:46:54.581Z,24.48
2019-04-21T13:49:27.446Z,24.67
2019-04-21T13:52:00.563Z,24.89
2019-04-21T13:54:33.774Z,25.18
2019-04-21T13:57:05.969Z,25.16
2019-04-21T13:59:38.489Z,25.20
2019-04-21T14:02:11.365Z,25.27
2019-04-21T14:04:45.351Z,24.98
2019-04-21T14:07:18.429Z,24.97
2019-04-21T14:09:58.921Z,25.12
2019-04-21T14:12:25.392Z,25.32
2019-04-21T14:14:57.570Z,25.44
2019-04-21T14:17:30.973Z,25.43
2019-04-21T14:20:03.564Z,25.25
2019-04-21T14:22:35.993Z,25.24
2019-04-21T14:25:09.941Z,25.15
2019-04-21T14:27:42.186Z,24.99
2019-04-21T14:30:16.544Z,24.77
2019-04-21T14:32:49.913Z,24.77
2019-04-21T14:35:23.072Z,24.69
2019-04-21T14:37:56.558Z,24.67
2019-04-21T14:40:31.399Z,24.64
2019-04-21T14:43:02.982Z,24.26
2019-04-21T14:45:50.508Z,24.14
2019-04-21T14:48:41.196Z,23.97
2019-04-21T14:51:43.256Z,23.82
2019-04-21T14:54:44.643Z,23.75
2019-04-21T14:57:17.069Z,23.47
2019-04-21T14:59:49.221Z,23.34
2019-04-21T15:02:22.288Z,23.22
2019-04-21T15:04:55.649Z,23.02
2019-04-21T15:07:27.866Z,23.02
2019-04-21T15:10:07.863Z,22.86
2019-04-21T15:12:34.070Z,23.03
2019-04-21T15:15:07.756Z,23.03
2019-04-21T15:17:40.180Z,22.94
2019-04-21T15:20:15.866Z,22.93
2019-04-21T15:22:46.471Z,22.99
2019-04-21T15:25:18.779Z,22.90
2019-04-21T15:27:52.777Z,22.89
2019-04-21T15:30:25.228Z,22.79
2019-04-21T15:32:58.090Z,22.52
2019-04-21T15:35:31.069Z,22.46
2019-04-21T15:38:04.153Z,22.41
2019-04-21T15:40:44.612Z,22.41
2019-04-21T15:43:10.696Z,22.40
2019-04-21T15:45:42.848Z,22.34
2019-04-21T15:48:16.111Z,22.18
2019-04-21T15:50:48.320Z,22.10
2019-04-21T15:53:21.626Z,22.07
2019-04-21T15:56:02.574Z,21.96
2019-04-21T15:58:58.951Z,21.89
2019-04-21T16:01:38.998Z,21.82
2019-04-21T16:04:12.547Z,21.78
2019-04-21T16:06:45.642Z,21.80
2019-04-21T16:09:21.766Z,21.75
2019-04-21T16:11:53.503Z,21.70
2019-04-21T16:14:27.071Z,21.67
2019-04-21T16:16:59.241Z,21.63
2019-04-21T16:19:33.340Z,21.58
2019-04-21T16:22:06.571Z,21.58
2019-04-21T16:24:39.851Z,21.49
2019-04-21T16:27:12.708Z,21.40
2019-04-21T16:29:45.754Z,21.31
2019-04-21T16:32:20.169Z,21.32
2019-04-21T16:34:58.058Z,21.23
2019-04-21T16:37:25.781Z,21.18
2019-04-21T16:39:59.088Z,21.16
2019-04-21T16:42:32.124Z,21.07
2019-04-21T16:45:07.276Z,20.99
2019-04-21T16:47:40.012Z,20.95
2019-04-21T16:50:13.904Z,20.92
2019-04-21T16:52:54.202Z,20.88
2019-04-21T16:55:35.230Z,20.87
2019-04-21T16:58:28.587Z,20.76
2019-04-21T17:01:08.576Z,20.70
2019-04-21T17:03:36.826Z,20.63
2019-04-21T17:06:09.108Z,20.59
2019-04-21T17:08:41.261Z,20.53
2019-04-21T17:11:20.401Z,20.57
2019-04-21T17:13:47.917Z,20.50
2019-04-21T17:16:51.476Z,20.45
2019-04-21T17:19:05.236Z,20.33
2019-04-21T17:21:29.639Z,20.34
2019-04-21T17:24:04.376Z,20.28
2019-04-21T17:26:39.407Z,20.20
2019-04-21T17:29:12.370Z,20.12
2019-04-21T17:31:45.697Z,19.94
2019-04-21T17:34:24.618Z,19.93
2019-04-21T17:36:55.050Z,19.89
2019-04-21T17:39:28.848Z,19.90
2019-04-21T17:42:14.236Z,19.87
2019-04-21T17:44:37.251Z,19.64
2019-04-21T17:47:21.717Z,19.63
2019-04-21T17:49:44.515Z,19.49
2019-04-21T17:52:53.633Z,19.47
2019-04-21T17:55:27.716Z,19.44
2019-04-21T17:58:11.915Z,19.36
2019-04-21T18:01:10.681Z,19.36
2019-04-21T18:03:37.463Z,19.31
2019-04-21T18:05:59.382Z,19.26
2019-04-21T18:08:37.102Z,19.17
2019-04-21T18:11:03.351Z,19.10
2019-04-21T18:13:26.857Z,19.02
2019-04-21T18:16:09.689Z,18.96
2019-04-21T18:18:34.816Z,18.93
2019-04-21T18:21:14.529Z,18.90
2019-04-21T18:24:00.105Z,18.76
2019-04-21T18:26:35.824Z,18.70
2019-04-21T18:29:01.062Z,18.67
2019-04-21T18:31:38.773Z,18.62
2019-04-21T18:34:16.279Z,18.56
2019-04-21T18:36:55.600Z,18.52
2019-04-21T18:39:46.436Z,18.50
2019-04-21T18:42:32.783Z,18.41
2019-04-21T18:45:50.277Z,18.27
2019-04-21T18:48:18.379Z,18.25
2019-04-21T18:50:58.976Z,18.25
2019-04-21T18:53:48.083Z,18.14
2019-04-21T18:56:11.183Z,18.01
2019-04-21T18:58:42.411Z,17.88
2019-04-21T19:01:22.449Z,17.85
2019-04-21T19:03:51.137Z,17.78
2019-04-21T19:06:42.420Z,17.85
2019-04-21T19:09:17.015Z,17.72
2019-04-21T19:11:48.068Z,17.67
2019-04-21T19:22:20.445Z,17.39
2019-04-21T19:24:59.471Z,17.37
2019-04-21T19:27:17.639Z,17.30
2019-04-21T19:29:58.335Z,17.29
2019-04-21T19:32:26.711Z,17.16
2019-04-21T19:34:44.973Z,17.05
2019-04-21T19:37:20.136Z,17.02
2019-04-21T19:40:03.281Z,16.89
2019-04-21T19:42:35.490Z,16.86
2019-04-21T19:45:16.525Z,16.90
2019-04-21T19:47:48.693Z,16.79
2019-04-21T19:50:28.633Z,16.77
2019-04-21T19:52:53.450Z,16.72
2019-04-21T19:55:15.954Z,16.59
2019-04-21T19:57:49.247Z,16.56
2019-04-21T20:00:22.753Z,16.50
2019-04-21T20:02:56.339Z,16.50
2019-04-21T20:05:36.123Z,16.46
2019-04-21T20:08:17.367Z,16.41
2019-04-21T20:10:57.955Z,16.34
2019-04-21T20:13:42.144Z,16.26
2019-04-21T20:16:06.581Z,16.26
2019-04-21T20:18:27.321Z,16.24
2019-04-21T20:20:54.355Z,16.20
2019-04-21T20:23:31.698Z,16.07
2019-04-21T20:26:04.568Z,15.98
2019-04-21T20:28:45.712Z,15.91
2019-04-21T20:31:23.369Z,15.84
2019-04-21T20:34:05.087Z,15.82
2019-04-21T20:36:32.859Z,15.79
2019-04-21T20:38:59.267Z,15.73
2019-04-21T20:41:39.493Z,15.66
2019-04-21T20:44:18.441Z,15.60
2019-04-21T20:46:51.559Z,15.62
2019-04-21T20:49:19.236Z,15.60
2019-04-21T20:52:06.120Z,15.55
2019-04-21T20:54:30.258Z,15.49
2019-04-21T20:57:06.151Z,15.47
2019-04-21T20:59:35.188Z,15.41
2019-04-21T21:02:10.321Z,15.31
2019-04-21T21:04:42.458Z,15.24
2019-04-21T21:07:36.469Z,15.20
2019-04-21T21:10:00.533Z,15.16
2019-04-21T21:12:37.162Z,15.03
2019-04-21T21:15:00.064Z,15.09
2019-04-21T21:17:50.347Z,15.03
2019-04-21T21:20:18.111Z,14.91
2019-04-21T21:22:44.840Z,14.93
2019-04-21T21:25:30.549Z,14.82
2019-04-21T21:27:48.269Z,14.78
2019-04-21T21:30:31.320Z,14.73
2019-04-21T21:33:05.543Z,14.68
2019-04-21T21:35:31.122Z,14.56
2019-04-21T21:38:13.471Z,14.44
2019-04-21T21:40:42.475Z,14.47
2019-04-21T21:43:09.207Z,14.43
2019-04-21T21:45:42.193Z,14.30
2019-04-21T21:48:27.493Z,14.23
2019-04-21T21:50:57.786Z,14.19
2019-04-21T21:53:21.447Z,14.08
2019-04-21T21:55:53.048Z,14.08
2019-04-21T21:58:31.665Z,14.06
2019-04-21T22:01:02.980Z,14.04
2019-04-21T22:03:39.830Z,13.95
2019-04-21T22:06:13.634Z,13.93
2019-04-21T22:08:42.670Z,13.87
2019-04-21T22:13:49.730Z,13.79
2019-04-21T22:16:18.163Z,13.63
2019-04-21T22:19:06.915Z,13.61
2019-04-21T22:21:41.244Z,13.64
2019-04-21T22:24:05.706Z,13.52
2019-04-21T22:26:31.647Z,13.53
2019-04-21T22:29:03.915Z,13.57
2019-04-21T22:31:39.664Z,13.51
2019-04-21T22:34:14.473Z,13.45
2019-04-21T22:36:56.313Z,13.34
2019-04-21T22:39:34.975Z,13.28
2019-04-21T22:42:01.748Z,13.22
2019-04-21T22:44:28.156Z,13.13
2019-04-21T22:47:09.685Z,13.09
2019-04-21T22:49:36.810Z,12.97
2019-04-21T22:52:15.192Z,12.96
2019-04-21T22:54:46.388Z,12.94
2019-04-21T22:57:21.607Z,12.85
2019-04-21T22:59:59.365Z,12.86
2019-04-21T23:02:29.610Z,12.80
2019-04-21T23:05:02.068Z,12.80
2019-04-21T23:07:44.151Z,12.82
2019-04-21T23:10:09.363Z,12.77
2019-04-21T23:12:43.777Z,12.75
2019-04-21T23:15:19.474Z,12.71
2019-04-21T23:18:08.910Z,12.72
2019-04-21T23:20:43.561Z,12.65
2019-04-21T23:23:16.143Z,12.68
2019-04-21T23:25:47.184Z,12.58
2019-04-21T23:28:24.003Z,12.48
2019-04-21T23:31:00.426Z,12.38
2019-04-21T23:33:18.016Z,12.36
2019-04-21T23:35:49.551Z,12.29
2019-04-21T23:38:30.248Z,12.25
2019-04-21T23:41:00.568Z,12.17
2019-04-21T23:43:32.992Z,11.98
2019-04-21T23:46:12.734Z,11.98
2019-04-21T23:48:55.909Z,11.93
2019-04-21T23:51:26.860Z,11.91
2019-04-21T23:53:47.247Z,11.91
2019-04-21T23:56:25.827Z,11.83
2019-04-21T23:59:02.671Z,11.82
